sensor_id;sensor_type;location;lat;lon;timestamp;pressure;altitude;pressure_sealevel;temperature;humidity
71424;BME280;59240;51.370;-0.486;2022-12-18T00:01:20;102189.81;;;-2.38;84.91
71424;BME280;59240;51.370;-0.486;2022-12-18T00:03:47;102136.53;;;-2.64;84.94
71424;BME280;59240;51.370;-0.486;2022-12-18T00:06:15;102166.69;;;-2.41;85.22
71424;BME280;59240;51.370;-0.486;2022-12-18T00:08:42;102167.00;;;-2.35;84.74
71424;BME280;59240;51.370;-0.486;2022-12-18T00:11:12;102148.59;;;-2.45;84.81
71424;BME280;59240;51.370;-0.486;2022-12-18T00:13:40;102161.03;;;-2.35;85.20
71424;BME280;59240;51.370;-0.486;2022-12-18T00:16:11;102164.84;;;-2.27;84.98
71424;BME280;59240;51.370;-0.486;2022-12-18T00:18:39;102160.63;;;-2.27;85.04
71424;BME280;59240;51.370;-0.486;2022-12-18T00:21:08;102162.41;;;-2.26;85.20
71424;BME280;59240;51.370;-0.486;2022-12-18T00:23:35;102153.44;;;-2.34;84.99
71424;BME280;59240;51.370;-0.486;2022-12-18T00:26:05;102137.50;;;-2.46;84.35
71424;BME280;59240;51.370;-0.486;2022-12-18T00:28:33;102167.19;;;-2.32;85.05
71424;BME280;59240;51.370;-0.486;2022-12-18T00:31:05;102150.75;;;-2.37;84.48
71424;BME280;59240;51.370;-0.486;2022-12-18T00:33:33;102162.06;;;-2.32;84.49
71424;BME280;59240;51.370;-0.486;2022-12-18T00:36:05;102170.53;;;-2.33;84.61
71424;BME280;59240;51.370;-0.486;2022-12-18T00:38:33;102152.16;;;-2.42;85.09
71424;BME280;59240;51.370;-0.486;2022-12-18T00:40:59;102115.66;;;-2.57;85.05
71424;BME280;59240;51.370;-0.486;2022-12-18T00:43:26;102126.00;;;-2.54;84.66
71424;BME280;59240;51.370;-0.486;2022-12-18T00:45:53;102156.66;;;-2.38;84.89
71424;BME280;59240;51.370;-0.486;2022-12-18T00:48:20;102150.59;;;-2.40;84.83
71424;BME280;59240;51.370;-0.486;2022-12-18T00:50:50;102113.97;;;-2.57;85.93
71424;BME280;59240;51.370;-0.486;2022-12-18T00:53:17;102129.06;;;-2.45;85.03
71424;BME280;59240;51.370;-0.486;2022-12-18T00:55:44;102134.81;;;-2.33;86.20
71424;BME280;59240;51.370;-0.486;2022-12-18T00:58:12;102142.69;;;-2.28;86.46
71424;BME280;59240;51.370;-0.486;2022-12-18T01:00:39;102106.22;;;-2.42;85.55
71424;BME280;59240;51.370;-0.486;2022-12-18T01:03:06;102125.84;;;-2.25;85.73
71424;BME280;59240;51.370;-0.486;2022-12-18T01:05:39;102130.47;;;-2.17;86.05
71424;BME280;59240;51.370;-0.486;2022-12-18T01:08:06;102123.03;;;-2.13;86.31
71424;BME280;59240;51.370;-0.486;2022-12-18T01:10:32;102108.63;;;-2.12;87.13
71424;BME280;59240;51.370;-0.486;2022-12-18T01:12:59;102104.53;;;-2.09;87.66
71424;BME280;59240;51.370;-0.486;2022-12-18T01:15:25;102101.34;;;-2.05;87.72
71424;BME280;59240;51.370;-0.486;2022-12-18T01:17:53;102097.88;;;-1.89;88.06
71424;BME280;59240;51.370;-0.486;2022-12-18T01:20:20;102116.38;;;-1.77;88.42
71424;BME280;59240;51.370;-0.486;2022-12-18T01:22:46;102087.03;;;-1.85;88.11
71424;BME280;59240;51.370;-0.486;2022-12-18T01:25:13;102104.97;;;-1.66;88.10
71424;BME280;59240;51.370;-0.486;2022-12-18T01:27:39;102062.72;;;-1.77;87.47
71424;BME280;59240;51.370;-0.486;2022-12-18T01:30:06;102104.13;;;-1.48;88.53
71424;BME280;59240;51.370;-0.486;2022-12-18T01:32:33;102096.81;;;-1.41;87.73
71424;BME280;59240;51.370;-0.486;2022-12-18T01:34:59;102098.88;;;-1.33;88.16
71424;BME280;59240;51.370;-0.486;2022-12-18T01:37:26;102084.41;;;-1.33;88.71
71424;BME280;59240;51.370;-0.486;2022-12-18T01:39:53;102062.34;;;-1.31;87.28
71424;BME280;59240;51.370;-0.486;2022-12-18T01:42:21;102093.34;;;-1.05;87.80
71424;BME280;59240;51.370;-0.486;2022-12-18T01:45:28;102087.53;;;-1.03;87.69
71424;BME280;59240;51.370;-0.486;2022-12-18T01:47:48;102062.53;;;-1.08;87.97
71424;BME280;59240;51.370;-0.486;2022-12-18T01:50:21;102084.69;;;-0.90;88.05
71424;BME280;59240;51.370;-0.486;2022-12-18T01:52:54;102084.09;;;-0.84;87.66
71424;BME280;59240;51.370;-0.486;2022-12-18T01:55:23;102085.84;;;-0.83;87.66
71424;BME280;59240;51.370;-0.486;2022-12-18T01:57:54;102092.88;;;-0.79;87.09
71424;BME280;59240;51.370;-0.486;2022-12-18T02:00:22;102040.53;;;-1.05;86.71
71424;BME280;59240;51.370;-0.486;2022-12-18T02:02:49;102074.69;;;-0.85;86.99
71424;BME280;59240;51.370;-0.486;2022-12-18T02:05:18;102090.44;;;-0.76;86.53
71424;BME280;59240;51.370;-0.486;2022-12-18T02:10:42;102107.41;;;-0.78;86.40
71424;BME280;59240;51.370;-0.486;2022-12-18T02:13:16;102113.06;;;-0.85;86.21
71424;BME280;59240;51.370;-0.486;2022-12-18T02:16:00;102124.16;;;-0.85;86.03
71424;BME280;59240;51.370;-0.486;2022-12-18T02:18:35;102131.66;;;-0.89;86.14
71424;BME280;59240;51.370;-0.486;2022-12-18T02:21:13;102124.63;;;-0.93;86.15
71424;BME280;59240;51.370;-0.486;2022-12-18T02:23:47;102126.25;;;-0.95;85.69
71424;BME280;59240;51.370;-0.486;2022-12-18T02:26:34;102117.31;;;-1.03;85.80
71424;BME280;59240;51.370;-0.486;2022-12-18T02:29:05;102123.41;;;-1.01;85.95
71424;BME280;59240;51.370;-0.486;2022-12-18T02:31:40;102124.22;;;-1.02;85.90
71424;BME280;59240;51.370;-0.486;2022-12-18T02:34:10;102124.91;;;-1.05;86.05
71424;BME280;59240;51.370;-0.486;2022-12-18T02:36:40;102093.41;;;-1.23;85.86
71424;BME280;59240;51.370;-0.486;2022-12-18T02:39:10;102132.53;;;-1.06;86.04
71424;BME280;59240;51.370;-0.486;2022-12-18T02:41:38;102123.63;;;-1.15;86.06
71424;BME280;59240;51.370;-0.486;2022-12-18T02:44:10;102102.81;;;-1.22;86.12
71424;BME280;59240;51.370;-0.486;2022-12-18T02:46:49;102133.19;;;-1.11;86.55
71424;BME280;59240;51.370;-0.486;2022-12-18T02:52:03;102132.66;;;-1.03;86.67
71424;BME280;59240;51.370;-0.486;2022-12-18T02:57:41;102104.41;;;-1.06;86.70
71424;BME280;59240;51.370;-0.486;2022-12-18T03:00:28;102110.66;;;-1.00;86.66
71424;BME280;59240;51.370;-0.486;2022-12-18T03:03:29;102101.31;;;-0.99;86.78
71424;BME280;59240;51.370;-0.486;2022-12-18T03:06:22;102094.59;;;-0.97;86.61
71424;BME280;59240;51.370;-0.486;2022-12-18T03:08:56;102095.69;;;-0.92;86.89
71424;BME280;59240;51.370;-0.486;2022-12-18T03:11:26;102101.81;;;-0.89;86.77
71424;BME280;59240;51.370;-0.486;2022-12-18T03:14:23;102064.69;;;-0.98;86.73
71424;BME280;59240;51.370;-0.486;2022-12-18T03:16:54;102070.16;;;-0.91;86.35
71424;BME280;59240;51.370;-0.486;2022-12-18T03:19:27;102082.34;;;-0.85;86.68
71424;BME280;59240;51.370;-0.486;2022-12-18T03:21:56;102074.75;;;-0.84;86.43
71424;BME280;59240;51.370;-0.486;2022-12-18T03:24:26;102068.69;;;-0.86;86.66
71424;BME280;59240;51.370;-0.486;2022-12-18T03:26:58;102071.38;;;-0.83;86.51
71424;BME280;59240;51.370;-0.486;2022-12-18T03:29:32;102075.63;;;-0.83;86.67
71424;BME280;59240;51.370;-0.486;2022-12-18T03:32:10;102077.41;;;-0.82;86.16
71424;BME280;59240;51.370;-0.486;2022-12-18T03:34:40;102072.13;;;-0.85;86.16
71424;BME280;59240;51.370;-0.486;2022-12-18T03:37:08;102083.28;;;-0.83;86.34
71424;BME280;59240;51.370;-0.486;2022-12-18T03:39:35;102049.22;;;-1.01;85.91
71424;BME280;59240;51.370;-0.486;2022-12-18T03:42:16;102074.69;;;-0.85;85.82
71424;BME280;59240;51.370;-0.486;2022-12-18T03:45:07;102063.50;;;-0.87;86.26
71424;BME280;59240;51.370;-0.486;2022-12-18T03:50:22;102031.97;;;-1.05;86.08
71424;BME280;59240;51.370;-0.486;2022-12-18T03:55:28;102045.88;;;-1.00;86.05
71424;BME280;59240;51.370;-0.486;2022-12-18T03:57:58;102036.09;;;-1.09;85.56
71424;BME280;59240;51.370;-0.486;2022-12-18T04:00:26;102054.47;;;-0.98;86.17
71424;BME280;59240;51.370;-0.486;2022-12-18T04:02:55;102049.34;;;-0.98;86.02
71424;BME280;59240;51.370;-0.486;2022-12-18T04:05:24;102048.81;;;-0.91;86.28
71424;BME280;59240;51.370;-0.486;2022-12-18T04:07:53;102041.91;;;-0.94;86.45
71424;BME280;59240;51.370;-0.486;2022-12-18T04:10:20;102046.25;;;-0.91;85.95
71424;BME280;59240;51.370;-0.486;2022-12-18T04:12:46;102042.78;;;-0.93;85.87
71424;BME280;59240;51.370;-0.486;2022-12-18T04:15:13;102041.16;;;-0.91;85.82
71424;BME280;59240;51.370;-0.486;2022-12-18T04:17:47;102046.41;;;-0.88;85.97
71424;BME280;59240;51.370;-0.486;2022-12-18T04:20:15;102051.53;;;-0.88;85.86
71424;BME280;59240;51.370;-0.486;2022-12-18T04:22:42;102056.66;;;-0.88;85.72
71424;BME280;59240;51.370;-0.486;2022-12-18T04:25:08;102042.91;;;-0.90;85.66
71424;BME280;59240;51.370;-0.486;2022-12-18T04:27:35;102044.72;;;-0.88;85.85
71424;BME280;59240;51.370;-0.486;2022-12-18T04:30:02;102042.13;;;-0.89;85.74
71424;BME280;59240;51.370;-0.486;2022-12-18T04:32:28;102048.16;;;-0.87;85.85
71424;BME280;59240;51.370;-0.486;2022-12-18T04:34:55;102049.78;;;-0.89;86.01
71424;BME280;59240;51.370;-0.486;2022-12-18T04:37:21;102030.78;;;-0.94;86.07
71424;BME280;59240;51.370;-0.486;2022-12-18T04:39:48;102005.75;;;-1.01;85.69
71424;BME280;59240;51.370;-0.486;2022-12-18T04:42:14;102013.97;;;-0.89;86.22
71424;BME280;59240;51.370;-0.486;2022-12-18T04:44:41;102016.13;;;-0.79;86.20
71424;BME280;59240;51.370;-0.486;2022-12-18T04:47:07;102011.88;;;-0.78;86.18
71424;BME280;59240;51.370;-0.486;2022-12-18T04:49:34;101988.63;;;-0.83;86.04
71424;BME280;59240;51.370;-0.486;2022-12-18T04:52:00;101999.41;;;-0.71;86.23
71424;BME280;59240;51.370;-0.486;2022-12-18T04:54:27;101989.31;;;-0.68;86.27
71424;BME280;59240;51.370;-0.486;2022-12-18T04:56:54;101991.94;;;-0.66;86.38
71424;BME280;59240;51.370;-0.486;2022-12-18T04:59:20;101997.25;;;-0.62;86.12
71424;BME280;59240;51.370;-0.486;2022-12-18T05:01:47;101998.31;;;-0.57;86.16
71424;BME280;59240;51.370;-0.486;2022-12-18T05:04:14;101964.47;;;-0.70;85.92
71424;BME280;59240;51.370;-0.486;2022-12-18T05:06:40;101973.69;;;-0.54;86.01
71424;BME280;59240;51.370;-0.486;2022-12-18T05:09:07;101918.91;;;-0.79;86.26
71424;BME280;59240;51.370;-0.486;2022-12-18T05:11:36;101961.75;;;-0.54;85.95
71424;BME280;59240;51.370;-0.486;2022-12-18T05:14:02;101959.50;;;-0.46;86.22
71424;BME280;59240;51.370;-0.486;2022-12-18T05:16:29;101950.88;;;-0.48;86.23
71424;BME280;59240;51.370;-0.486;2022-12-18T05:18:55;101945.69;;;-0.50;85.72
71424;BME280;59240;51.370;-0.486;2022-12-18T05:21:22;101951.13;;;-0.42;85.78
71424;BME280;59240;51.370;-0.486;2022-12-18T05:23:48;101951.28;;;-0.39;85.97
71424;BME280;59240;51.370;-0.486;2022-12-18T05:26:17;101941.75;;;-0.42;85.71
71424;BME280;59240;51.370;-0.486;2022-12-18T05:28:44;101916.81;;;-0.47;85.96
71424;BME280;59240;51.370;-0.486;2022-12-18T05:31:12;101934.44;;;-0.34;85.86
71424;BME280;59240;51.370;-0.486;2022-12-18T05:33:39;101919.06;;;-0.34;85.80
71424;BME280;59240;51.370;-0.486;2022-12-18T05:36:08;101918.41;;;-0.29;86.05
71424;BME280;59240;51.370;-0.486;2022-12-18T05:38:36;101916.88;;;-0.25;86.36
71424;BME280;59240;51.370;-0.486;2022-12-18T05:41:04;101891.69;;;-0.35;85.79
71424;BME280;59240;51.370;-0.486;2022-12-18T05:43:31;101909.38;;;-0.20;85.87
71424;BME280;59240;51.370;-0.486;2022-12-18T05:46:06;101910.31;;;-0.18;85.68
71424;BME280;59240;51.370;-0.486;2022-12-18T05:48:33;101897.44;;;-0.20;85.75
71424;BME280;59240;51.370;-0.486;2022-12-18T05:51:05;101909.72;;;-0.11;86.05
71424;BME280;59240;51.370;-0.486;2022-12-18T05:53:32;101885.56;;;-0.18;85.63
71424;BME280;59240;51.370;-0.486;2022-12-18T05:56:07;101891.91;;;-0.08;85.85
71424;BME280;59240;51.370;-0.486;2022-12-18T05:58:34;101880.63;;;-0.13;86.10
71424;BME280;59240;51.370;-0.486;2022-12-18T06:01:13;101852.84;;;-0.25;86.21
71424;BME280;59240;51.370;-0.486;2022-12-18T06:03:40;101844.25;;;-0.27;86.55
71424;BME280;59240;51.370;-0.486;2022-12-18T06:06:18;101867.78;;;0.08;86.99
71424;BME280;59240;51.370;-0.486;2022-12-18T06:08:46;101871.50;;;0.16;86.97
71424;BME280;59240;51.370;-0.486;2022-12-18T06:11:15;101857.81;;;0.15;86.95
71424;BME280;59240;51.370;-0.486;2022-12-18T06:13:41;101865.19;;;0.30;86.57
71424;BME280;59240;51.370;-0.486;2022-12-18T06:16:08;101819.34;;;0.14;86.73
71424;BME280;59240;51.370;-0.486;2022-12-18T06:18:35;101822.41;;;0.28;85.74
71424;BME280;59240;51.370;-0.486;2022-12-18T06:21:01;101823.66;;;0.39;86.05
71424;BME280;59240;51.370;-0.486;2022-12-18T06:23:28;101840.56;;;0.58;86.26
71424;BME280;59240;51.370;-0.486;2022-12-18T06:25:54;101829.59;;;0.62;86.53
71424;BME280;59240;51.370;-0.486;2022-12-18T06:28:21;101796.06;;;0.56;86.54
71424;BME280;59240;51.370;-0.486;2022-12-18T06:30:48;101800.59;;;0.63;85.72
71424;BME280;59240;51.370;-0.486;2022-12-18T06:33:16;101800.69;;;0.66;85.46
71424;BME280;59240;51.370;-0.486;2022-12-18T06:35:42;101814.22;;;0.87;85.91
71424;BME280;59240;51.370;-0.486;2022-12-18T06:38:09;101821.31;;;0.94;85.37
71424;BME280;59240;51.370;-0.486;2022-12-18T06:40:37;101804.31;;;0.96;85.61
71424;BME280;59240;51.370;-0.486;2022-12-18T06:43:04;101797.19;;;0.89;85.66
71424;BME280;59240;51.370;-0.486;2022-12-18T06:45:30;101813.03;;;1.03;85.68
71424;BME280;59240;51.370;-0.486;2022-12-18T06:47:57;101787.88;;;0.91;85.52
71424;BME280;59240;51.370;-0.486;2022-12-18T06:50:24;101808.06;;;1.07;84.72
71424;BME280;59240;51.370;-0.486;2022-12-18T06:52:51;101820.50;;;1.21;84.73
71424;BME280;59240;51.370;-0.486;2022-12-18T06:55:17;101823.97;;;1.23;84.35
71424;BME280;59240;51.370;-0.486;2022-12-18T06:57:44;101819.81;;;1.26;84.62
71424;BME280;59240;51.370;-0.486;2022-12-18T07:00:11;101787.75;;;1.14;84.62
71424;BME280;59240;51.370;-0.486;2022-12-18T07:02:38;101805.28;;;1.27;85.14
71424;BME280;59240;51.370;-0.486;2022-12-18T07:05:05;101805.56;;;1.36;84.32
71424;BME280;59240;51.370;-0.486;2022-12-18T07:07:36;101767.44;;;1.20;84.76
71424;BME280;59240;51.370;-0.486;2022-12-18T07:10:03;101807.44;;;1.40;84.00
71424;BME280;59240;51.370;-0.486;2022-12-18T07:12:30;101805.03;;;1.45;83.90
71424;BME280;59240;51.370;-0.486;2022-12-18T07:14:56;101799.88;;;1.45;83.91
71424;BME280;59240;51.370;-0.486;2022-12-18T07:17:23;101811.31;;;1.54;84.58
71424;BME280;59240;51.370;-0.486;2022-12-18T07:19:50;101806.97;;;1.52;84.06
71424;BME280;59240;51.370;-0.486;2022-12-18T07:22:16;101800.19;;;1.55;84.01
71424;BME280;59240;51.370;-0.486;2022-12-18T07:24:43;101780.28;;;1.48;83.92
71424;BME280;59240;51.370;-0.486;2022-12-18T07:27:09;101790.13;;;1.61;83.54
71424;BME280;59240;51.370;-0.486;2022-12-18T07:29:36;101783.25;;;1.60;84.25
71424;BME280;59240;51.370;-0.486;2022-12-18T07:32:03;101797.19;;;1.69;83.83
71424;BME280;59240;51.370;-0.486;2022-12-18T07:34:30;101787.75;;;1.68;84.14
71424;BME280;59240;51.370;-0.486;2022-12-18T07:36:56;101787.81;;;1.71;83.50
71424;BME280;59240;51.370;-0.486;2022-12-18T07:39:23;101772.34;;;1.68;83.49
71424;BME280;59240;51.370;-0.486;2022-12-18T07:41:49;101748.19;;;1.62;84.37
71424;BME280;59240;51.370;-0.486;2022-12-18T07:44:36;101764.81;;;1.74;83.42
71424;BME280;59240;51.370;-0.486;2022-12-18T07:47:03;101748.19;;;1.62;83.75
71424;BME280;59240;51.370;-0.486;2022-12-18T07:49:36;101747.59;;;1.71;83.31
71424;BME280;59240;51.370;-0.486;2022-12-18T07:52:03;101757.13;;;1.74;83.52
71424;BME280;59240;51.370;-0.486;2022-12-18T07:54:30;101731.06;;;1.61;83.18
71424;BME280;59240;51.370;-0.486;2022-12-18T07:56:56;101750.25;;;1.73;83.32
71424;BME280;59240;51.370;-0.486;2022-12-18T07:59:23;101760.59;;;1.76;82.88
71424;BME280;59240;51.370;-0.486;2022-12-18T08:01:49;101725.06;;;1.61;83.29
71424;BME280;59240;51.370;-0.486;2022-12-18T08:04:16;101739.84;;;1.70;82.89
71424;BME280;59240;51.370;-0.486;2022-12-18T08:06:42;101746.25;;;1.84;83.60
71424;BME280;59240;51.370;-0.486;2022-12-18T08:09:13;101757.56;;;1.89;83.58
71424;BME280;59240;51.370;-0.486;2022-12-18T08:11:40;101727.03;;;1.71;82.86
71424;BME280;59240;51.370;-0.486;2022-12-18T08:14:06;101745.34;;;1.82;83.29
71424;BME280;59240;51.370;-0.486;2022-12-18T08:16:33;101754.16;;;1.90;83.59
71424;BME280;59240;51.370;-0.486;2022-12-18T08:18:59;101749.81;;;1.87;82.53
71424;BME280;59240;51.370;-0.486;2022-12-18T08:21:28;101763.66;;;1.92;83.05
71424;BME280;59240;51.370;-0.486;2022-12-18T08:23:57;101762.75;;;1.92;83.34
71424;BME280;59240;51.370;-0.486;2022-12-18T08:26:27;101734.06;;;1.77;83.68
71424;BME280;59240;51.370;-0.486;2022-12-18T08:28:55;101774.06;;;1.97;83.25
71424;BME280;59240;51.370;-0.486;2022-12-18T08:31:22;101773.94;;;1.92;83.05
71424;BME280;59240;51.370;-0.486;2022-12-18T08:33:51;101780.03;;;1.96;83.33
71424;BME280;59240;51.370;-0.486;2022-12-18T08:36:18;101782.72;;;1.99;82.98
71424;BME280;59240;51.370;-0.486;2022-12-18T08:38:46;101769.75;;;1.96;82.66
71424;BME280;59240;51.370;-0.486;2022-12-18T08:41:15;101776.72;;;2.00;82.76
71424;BME280;59240;51.370;-0.486;2022-12-18T08:43:42;101783.50;;;1.98;82.78
71424;BME280;59240;51.370;-0.486;2022-12-18T08:46:33;101798.13;;;1.99;82.44
71424;BME280;59240;51.370;-0.486;2022-12-18T08:49:00;101780.81;;;1.94;83.06
71424;BME280;59240;51.370;-0.486;2022-12-18T08:51:28;101789.50;;;1.99;83.08
71424;BME280;59240;51.370;-0.486;2022-12-18T08:53:54;101783.59;;;2.01;82.81
71424;BME280;59240;51.370;-0.486;2022-12-18T08:56:21;101787.19;;;2.06;83.00
71424;BME280;59240;51.370;-0.486;2022-12-18T08:58:52;101770.78;;;2.03;82.78
71424;BME280;59240;51.370;-0.486;2022-12-18T09:01:19;101764.94;;;2.07;83.21
71424;BME280;59240;51.370;-0.486;2022-12-18T09:03:46;101767.56;;;2.10;82.81
71424;BME280;59240;51.370;-0.486;2022-12-18T09:06:15;101761.63;;;2.12;82.88
71424;BME280;59240;51.370;-0.486;2022-12-18T09:08:45;101753.03;;;2.10;82.57
71424;BME280;59240;51.370;-0.486;2022-12-18T09:11:20;101760.00;;;2.14;83.25
71424;BME280;59240;51.370;-0.486;2022-12-18T09:13:47;101758.31;;;2.15;82.92
71424;BME280;59240;51.370;-0.486;2022-12-18T09:16:13;101768.78;;;2.23;83.25
71424;BME280;59240;51.370;-0.486;2022-12-18T09:18:40;101751.28;;;2.09;82.97
71424;BME280;59240;51.370;-0.486;2022-12-18T09:21:12;101750.50;;;2.12;82.20
71424;BME280;59240;51.370;-0.486;2022-12-18T09:23:39;101779.25;;;2.29;82.70
71424;BME280;59240;51.370;-0.486;2022-12-18T09:26:06;101785.28;;;2.31;82.58
71424;BME280;59240;51.370;-0.486;2022-12-18T09:28:33;101760.06;;;2.17;81.98
71424;BME280;59240;51.370;-0.486;2022-12-18T09:31:04;101791.34;;;2.33;82.36
71424;BME280;59240;51.370;-0.486;2022-12-18T09:33:31;101784.41;;;2.29;81.96
71424;BME280;59240;51.370;-0.486;2022-12-18T09:35:57;101802.56;;;2.35;81.84
71424;BME280;59240;51.370;-0.486;2022-12-18T09:38:24;101786.31;;;2.36;81.90
71424;BME280;59240;51.370;-0.486;2022-12-18T09:40:58;101761.25;;;2.29;82.08
71424;BME280;59240;51.370;-0.486;2022-12-18T09:43:42;101772.69;;;2.40;81.84
71424;BME280;59240;51.370;-0.486;2022-12-18T09:46:16;101767.53;;;2.40;81.84
71424;BME280;59240;51.370;-0.486;2022-12-18T09:49:09;101779.72;;;2.47;81.30
71424;BME280;59240;51.370;-0.486;2022-12-18T09:51:48;101784.97;;;2.50;81.50
71424;BME280;59240;51.370;-0.486;2022-12-18T09:54:25;101778.16;;;2.52;81.91
71424;BME280;59240;51.370;-0.486;2022-12-18T09:56:53;101771.28;;;2.51;81.38
71424;BME280;59240;51.370;-0.486;2022-12-18T09:59:31;101778.25;;;2.55;81.25
71424;BME280;59240;51.370;-0.486;2022-12-18T10:01:59;101780.06;;;2.59;81.78
71424;BME280;59240;51.370;-0.486;2022-12-18T10:04:30;101761.16;;;2.57;81.48
71424;BME280;59240;51.370;-0.486;2022-12-18T10:07:06;101768.28;;;2.67;81.06
71424;BME280;59240;51.370;-0.486;2022-12-18T10:09:52;101766.63;;;2.69;81.37
71424;BME280;59240;51.370;-0.486;2022-12-18T10:12:39;101749.38;;;2.65;80.32
71424;BME280;59240;51.370;-0.486;2022-12-18T10:17:51;101751.09;;;2.66;80.78
71424;BME280;59240;51.370;-0.486;2022-12-18T10:20:27;101751.34;;;2.76;80.92
71424;BME280;59240;51.370;-0.486;2022-12-18T10:25:34;101737.66;;;2.77;81.28
71424;BME280;59240;51.370;-0.486;2022-12-18T10:28:13;101731.78;;;2.82;81.04
71424;BME280;59240;51.370;-0.486;2022-12-18T10:30:41;101717.91;;;2.76;81.29
71424;BME280;59240;51.370;-0.486;2022-12-18T10:33:13;101708.47;;;2.76;80.67
71424;BME280;59240;51.370;-0.486;2022-12-18T10:35:42;101724.16;;;2.87;80.82
71424;BME280;59240;51.370;-0.486;2022-12-18T10:40:56;101706.25;;;2.90;80.44
71424;BME280;59240;51.370;-0.486;2022-12-18T10:46:15;101699.41;;;2.90;80.59
71424;BME280;59240;51.370;-0.486;2022-12-18T10:51:30;101696.00;;;2.93;80.37
71424;BME280;59240;51.370;-0.486;2022-12-18T10:54:06;101697.72;;;2.92;80.63
71424;BME280;59240;51.370;-0.486;2022-12-18T10:56:39;101679.59;;;2.88;80.96
71424;BME280;59240;51.370;-0.486;2022-12-18T10:59:09;101683.09;;;2.90;81.34
71424;BME280;59240;51.370;-0.486;2022-12-18T11:01:46;101686.63;;;2.95;81.43
71424;BME280;59240;51.370;-0.486;2022-12-18T11:04:25;101678.09;;;2.96;81.74
71424;BME280;59240;51.370;-0.486;2022-12-18T11:06:59;101675.50;;;2.96;81.79
71424;BME280;59240;51.370;-0.486;2022-12-18T11:09:31;101678.09;;;2.96;81.95
71424;BME280;59240;51.370;-0.486;2022-12-18T11:12:01;101641.63;;;2.78;81.79
71424;BME280;59240;51.370;-0.486;2022-12-18T11:14:57;101667.84;;;2.99;82.15
71424;BME280;59240;51.370;-0.486;2022-12-18T11:17:31;101657.56;;;2.99;82.24
71424;BME280;59240;51.370;-0.486;2022-12-18T11:20:07;101640.38;;;2.98;82.61
71424;BME280;59240;51.370;-0.486;2022-12-18T11:22:55;101644.72;;;3.00;82.50
71424;BME280;59240;51.370;-0.486;2022-12-18T11:25:23;101633.50;;;2.97;82.35
71424;BME280;59240;51.370;-0.486;2022-12-18T11:28:01;101611.78;;;2.86;82.74
71424;BME280;59240;51.370;-0.486;2022-12-18T11:30:30;101628.50;;;3.03;83.12
71424;BME280;59240;51.370;-0.486;2022-12-18T11:33:04;101625.94;;;3.05;83.41
71424;BME280;59240;51.370;-0.486;2022-12-18T11:35:51;101619.94;;;3.06;84.06
71424;BME280;59240;51.370;-0.486;2022-12-18T11:38:27;101597.38;;;2.94;83.95
71424;BME280;59240;51.370;-0.486;2022-12-18T11:40:59;101630.34;;;3.10;84.95
71424;BME280;59240;51.370;-0.486;2022-12-18T11:43:35;101592.09;;;2.88;84.61
71424;BME280;59240;51.370;-0.486;2022-12-18T11:46:08;101604.53;;;3.07;84.51
71424;BME280;59240;51.370;-0.486;2022-12-18T11:49:12;101602.78;;;3.06;84.95
71424;BME280;59240;51.370;-0.486;2022-12-18T11:51:58;101586.47;;;3.04;85.38
71424;BME280;59240;51.370;-0.486;2022-12-18T11:54:26;101548.28;;;2.85;85.69
71424;BME280;59240;51.370;-0.486;2022-12-18T11:57:02;101580.47;;;3.05;85.95
71424;BME280;59240;51.370;-0.486;2022-12-18T12:00:01;101541.69;;;2.96;86.43
71424;BME280;59240;51.370;-0.486;2022-12-18T12:05:24;101536.66;;;3.02;86.74
71424;BME280;59240;51.370;-0.486;2022-12-18T12:08:45;101511.56;;;2.92;86.96
71424;BME280;59240;51.370;-0.486;2022-12-18T12:16:51;101513.66;;;3.11;87.38
71424;BME280;59240;51.370;-0.486;2022-12-18T12:27:47;101492.25;;;3.14;87.79
71424;BME280;59240;51.370;-0.486;2022-12-18T12:30:20;101488.81;;;3.13;88.36
71424;BME280;59240;51.370;-0.486;2022-12-18T12:33:18;101488.09;;;3.20;88.00
71424;BME280;59240;51.370;-0.486;2022-12-18T12:36:19;101485.50;;;3.19;88.88
71424;BME280;59240;51.370;-0.486;2022-12-18T12:38:55;101478.66;;;3.19;88.44
71424;BME280;59240;51.370;-0.486;2022-12-18T12:41:28;101465.81;;;3.22;88.83
71424;BME280;59240;51.370;-0.486;2022-12-18T12:44:23;101458.16;;;3.25;88.65
71424;BME280;59240;51.370;-0.486;2022-12-18T12:46:56;101457.28;;;3.23;89.36
71424;BME280;59240;51.370;-0.486;2022-12-18T12:49:27;101444.34;;;3.20;89.61
71424;BME280;59240;51.370;-0.486;2022-12-18T12:52:03;101452.25;;;3.29;89.89
71424;BME280;59240;51.370;-0.486;2022-12-18T12:54:32;101448.88;;;3.34;90.50
71424;BME280;59240;51.370;-0.486;2022-12-18T12:57:17;101452.31;;;3.36;90.86
71424;BME280;59240;51.370;-0.486;2022-12-18T12:59:51;101440.38;;;3.38;91.06
71424;BME280;59240;51.370;-0.486;2022-12-18T13:02:39;101410.22;;;3.32;91.08
71424;BME280;59240;51.370;-0.486;2022-12-18T13:05:25;101404.25;;;3.36;91.40
71424;BME280;59240;51.370;-0.486;2022-12-18T13:07:57;101389.63;;;3.32;91.45
71424;BME280;59240;51.370;-0.486;2022-12-18T13:10:32;101414.81;;;3.50;91.02
71424;BME280;59240;51.370;-0.486;2022-12-18T13:13:06;101413.16;;;3.52;91.56
71424;BME280;59240;51.370;-0.486;2022-12-18T13:15:48;101397.63;;;3.49;91.51
71424;BME280;59240;51.370;-0.486;2022-12-18T13:18:24;101399.47;;;3.56;91.03
71424;BME280;59240;51.370;-0.486;2022-12-18T13:21:05;101375.25;;;3.45;91.48
71424;BME280;59240;51.370;-0.486;2022-12-18T13:23:39;101389.16;;;3.56;90.66
71424;BME280;59240;51.370;-0.486;2022-12-18T13:34:20;101374.66;;;3.63;92.10
71424;BME280;59240;51.370;-0.486;2022-12-18T13:36:55;101338.31;;;3.44;91.55
71424;BME280;59240;51.370;-0.486;2022-12-18T13:39:32;101346.19;;;3.55;92.66
71424;BME280;59240;51.370;-0.486;2022-12-18T13:44:39;101356.59;;;3.61;92.61
71424;BME280;59240;51.370;-0.486;2022-12-18T13:47:35;101361.81;;;3.64;93.49
71424;BME280;59240;51.370;-0.486;2022-12-18T13:50:25;101342.94;;;3.65;94.04
71424;BME280;59240;51.370;-0.486;2022-12-18T13:53:03;101333.31;;;3.53;93.52
71424;BME280;59240;51.370;-0.486;2022-12-18T13:55:34;101299.63;;;3.40;93.05
71424;BME280;59240;51.370;-0.486;2022-12-18T13:58:05;101327.31;;;3.56;94.09
71424;BME280;59240;51.370;-0.486;2022-12-18T14:00:34;101315.28;;;3.55;94.16
71424;BME280;59240;51.370;-0.486;2022-12-18T14:03:00;101317.00;;;3.53;93.94